Terminal Aerodrome Forecast
Issued by NWS

Home | Current Version | Previous Version | Text Only | Print | Product List | Glossary On
Versions: 1 2 3 4 5 6 7 8 9 10 11 12 13 14 15
000
FTUS45 KABQ 201100 RRA
TAFLVS
TAF
KLVS 201141Z 2012/2112 25008KT P6SM SCT025 BKN050 OVC080
     FM201800 30012G22KT P6SM VCTS SCT050CB OVC070
      TEMPO 2019/2022 -SHRA BKN050
     FM202300 33013G22KT P6SM SCT050 BKN100
     FM210100 02009KT P6SM SCT100 BKN150=

USA.gov is the U.S. government's official web portal to all federal, state and local government web resources and services.